createdAt,value
2018-04-19T00:00:36.167Z,19.40
2018-04-19T00:03:04.230Z,18.40
2018-04-19T00:05:32.773Z,16.63
2018-04-19T00:08:00.838Z,16.30
2018-04-19T00:10:28.902Z,18.67
2018-04-19T00:12:57.593Z,16.00
2018-04-19T00:15:25.660Z,15.17
2018-04-19T00:17:53.727Z,14.50
2018-04-19T00:20:22.737Z,13.70
2018-04-19T00:22:51.566Z,17.13
2018-04-19T00:25:19.681Z,14.67
2018-04-19T00:27:47.841Z,13.80
2018-04-19T00:30:15.903Z,13.53
2018-04-19T00:32:43.973Z,16.30
2018-04-19T00:35:12.364Z,17.33
2018-04-19T00:37:40.437Z,15.27
2018-04-19T00:40:08.507Z,17.80
2018-04-19T00:42:36.897Z,20.00
2018-04-19T00:45:04.973Z,20.03
2018-04-19T00:47:33.033Z,28.30
2018-04-19T00:50:01.465Z,16.60
2018-04-19T00:52:41.185Z,19.83
2018-04-19T00:55:10.465Z,18.80
2018-04-19T00:57:38.521Z,18.80
2018-04-19T01:00:07.075Z,19.47
2018-04-19T01:02:35.597Z,18.17
2018-04-19T01:05:03.664Z,19.00
2018-04-19T01:07:31.733Z,16.20
2018-04-19T01:10:00.419Z,16.20
2018-04-19T01:12:28.473Z,17.47
2018-04-19T01:14:56.554Z,12.80
2018-04-19T01:17:24.985Z,13.97
2018-04-19T01:19:53.061Z,18.07
2018-04-19T01:22:21.117Z,16.20
2018-04-19T01:24:50.407Z,15.00
2018-04-19T01:27:19.249Z,26.57
2018-04-19T01:29:47.315Z,16.13
2018-04-19T01:32:15.831Z,27.30
2018-04-19T01:34:43.929Z,16.27
2018-04-19T01:37:12.756Z,14.77
2018-04-19T01:39:40.956Z,16.27
2018-04-19T01:42:09.061Z,16.97
2018-04-19T01:44:37.893Z,17.00
2018-04-19T01:47:06.404Z,22.33
2018-04-19T01:49:34.511Z,17.10
2018-04-19T01:52:03.348Z,18.77
2018-04-19T01:54:31.840Z,14.67
2018-04-19T01:56:59.920Z,16.10
2018-04-19T01:59:27.972Z,14.60
2018-04-19T02:01:56.635Z,17.30
2018-04-19T02:04:24.698Z,16.23
2018-04-19T02:06:52.761Z,15.80
2018-04-19T02:09:21.208Z,21.50
2018-04-19T02:11:49.283Z,18.43
2018-04-19T02:14:17.340Z,15.43
2018-04-19T02:16:45.550Z,17.97
2018-04-19T02:19:13.665Z,19.93
2018-04-19T02:21:41.689Z,13.07
2018-04-19T02:24:10.270Z,14.83
2018-04-19T02:26:39.098Z,14.43
2018-04-19T02:29:07.158Z,16.20
2018-04-19T02:31:35.733Z,13.40
2018-04-19T02:34:03.804Z,16.60
2018-04-19T02:36:31.878Z,19.80
2018-04-19T02:39:00.518Z,18.10
2018-04-19T02:41:28.577Z,21.90
2018-04-19T02:43:56.649Z,16.20
2018-04-19T02:46:25.045Z,17.43
2018-04-19T02:48:53.112Z,15.00
2018-04-19T02:51:21.175Z,15.80
2018-04-19T02:53:49.565Z,15.90
2018-04-19T02:56:17.627Z,14.90
2018-04-19T02:58:45.710Z,16.73
2018-04-19T03:01:13.893Z,14.60
2018-04-19T03:03:42.613Z,22.20
2018-04-19T03:06:10.688Z,20.10
2018-04-19T03:08:39.201Z,17.60
2018-04-19T03:11:07.279Z,21.83
2018-04-19T03:13:35.349Z,15.90
2018-04-19T03:16:03.746Z,22.03
2018-04-19T03:18:32.580Z,15.57
2018-04-19T03:21:00.660Z,18.20
2018-04-19T03:23:29.780Z,16.50
2018-04-19T03:25:57.858Z,17.00
2018-04-19T03:28:25.956Z,27.07
2018-04-19T03:30:54.911Z,15.57
2018-04-19T03:33:22.980Z,19.57
2018-04-19T03:35:51.078Z,20.60
2018-04-19T03:38:19.435Z,18.13
2018-04-19T03:40:47.512Z,22.93
2018-04-19T03:43:15.576Z,20.20
2018-04-19T03:45:43.772Z,19.53
2018-04-19T03:48:11.828Z,15.77
2018-04-19T03:50:39.934Z,24.03
2018-04-19T03:53:08.491Z,19.87
2018-04-19T03:55:36.552Z,21.63
2018-04-19T03:58:04.639Z,15.80
2018-04-19T04:00:33.300Z,18.40
2018-04-19T04:03:01.370Z,16.43
2018-04-19T04:05:29.632Z,18.17
2018-04-19T04:07:58.136Z,17.53
2018-04-19T04:10:26.206Z,16.23
2018-04-19T04:12:54.282Z,28.60
2018-04-19T04:15:22.669Z,22.23
2018-04-19T04:18:02.589Z,17.37
2018-04-19T04:20:42.548Z,19.77
2018-04-19T04:23:22.406Z,20.20
2018-04-19T04:25:50.891Z,20.83
2018-04-19T04:28:18.948Z,16.50
2018-04-19T04:30:48.270Z,18.73
2018-04-19T04:33:16.964Z,22.90
2018-04-19T04:35:45.796Z,19.03
2018-04-19T04:38:13.861Z,17.53
2018-04-19T04:40:42.395Z,20.47
2018-04-19T04:43:10.457Z,17.93
2018-04-19T04:45:38.536Z,15.13
2018-04-19T04:48:06.909Z,16.30
2018-04-19T04:50:34.981Z,18.50
2018-04-19T04:53:03.049Z,20.87
2018-04-19T04:55:31.444Z,18.27
2018-04-19T04:58:00.269Z,17.73
2018-04-19T05:00:28.338Z,17.83
2018-04-19T05:02:56.893Z,17.30
2018-04-19T05:05:25.728Z,19.83
2018-04-19T05:07:54.017Z,21.60
2018-04-19T05:10:22.639Z,23.87
2018-04-19T05:12:51.470Z,16.60
2018-04-19T05:15:19.539Z,42.20
2018-04-19T05:17:47.798Z,30.07
2018-04-19T05:20:15.862Z,29.60
2018-04-19T05:22:43.923Z,29.20
2018-04-19T05:25:13.219Z,17.83
2018-04-19T05:27:42.043Z,22.63
2018-04-19T05:30:10.109Z,28.57
2018-04-19T05:32:38.657Z,27.63
2018-04-19T05:35:07.493Z,29.77
2018-04-19T05:37:35.541Z,32.80
2018-04-19T05:40:04.647Z,17.47
2018-04-19T05:42:32.717Z,16.63
2018-04-19T05:45:00.780Z,19.73
2018-04-19T05:47:29.716Z,27.87
2018-04-19T05:49:57.797Z,15.83
2018-04-19T05:52:25.848Z,15.73
2018-04-19T05:54:54.391Z,20.43
2018-04-19T05:57:22.448Z,24.63
2018-04-19T05:59:51.284Z,29.07
2018-04-19T06:02:19.456Z,18.57
2018-04-19T06:04:47.524Z,26.73
2018-04-19T06:07:15.602Z,19.60
2018-04-19T06:09:44.173Z,28.03
2018-04-19T06:12:12.243Z,30.60
2018-04-19T06:14:40.321Z,20.50
2018-04-19T06:17:08.520Z,26.80
2018-04-19T06:19:36.628Z,22.03
2018-04-19T06:22:05.462Z,21.23
2018-04-19T06:24:33.964Z,24.73
2018-04-19T06:27:02.076Z,21.83
2018-04-19T06:29:30.142Z,21.50
2018-04-19T06:31:59.103Z,22.67
2018-04-19T06:34:27.191Z,23.33
2018-04-19T06:36:56.029Z,26.13
2018-04-19T06:39:24.558Z,26.33
2018-04-19T06:41:52.640Z,27.00
2018-04-19T06:44:21.479Z,23.03
2018-04-19T06:46:49.707Z,22.67
2018-04-19T06:49:18.546Z,22.93
2018-04-19T06:51:46.621Z,20.37
2018-04-19T06:54:15.125Z,20.80
2018-04-19T06:56:43.223Z,27.00
2018-04-19T06:59:12.059Z,27.03
2018-04-19T07:01:40.552Z,21.17
2018-04-19T07:04:08.645Z,21.87
2018-04-19T07:06:36.773Z,22.70
2018-04-19T07:09:06.625Z,29.47
2018-04-19T07:11:35.044Z,20.33
2018-04-19T07:14:03.077Z,21.50
2018-04-19T07:16:31.773Z,21.37
2018-04-19T07:19:00.603Z,22.20
2018-04-19T07:21:28.667Z,25.40
2018-04-19T07:23:56.917Z,26.63
2018-04-19T07:26:25.755Z,21.30
2018-04-19T07:28:53.818Z,22.77
2018-04-19T07:31:22.039Z,22.63
2018-04-19T07:33:50.115Z,25.27
2018-04-19T07:36:18.184Z,25.23
2018-04-19T07:38:47.204Z,24.03
2018-04-19T07:41:15.261Z,26.00
2018-04-19T07:43:44.096Z,24.30
2018-04-19T07:46:12.596Z,28.43
2018-04-19T07:48:40.676Z,21.47
2018-04-19T07:51:08.738Z,22.60
2018-04-19T07:53:37.119Z,25.80
2018-04-19T07:56:05.199Z,25.13
2018-04-19T07:58:33.267Z,31.23
2018-04-19T08:01:01.689Z,29.23
2018-04-19T08:03:29.759Z,23.97
2018-04-19T08:05:58.615Z,24.83
2018-04-19T08:08:27.590Z,28.07
2018-04-19T08:10:55.667Z,21.07
2018-04-19T08:13:24.006Z,25.33
2018-04-19T08:15:52.227Z,22.10
2018-04-19T08:18:20.288Z,28.23
2018-04-19T08:20:48.362Z,22.90
2018-04-19T08:23:17.076Z,20.47
2018-04-19T08:25:45.914Z,23.90
2018-04-19T08:28:13.984Z,24.70
2018-04-19T08:30:42.494Z,23.30
2018-04-19T08:33:10.565Z,22.10
2018-04-19T08:35:38.630Z,28.53
2018-04-19T08:38:07.322Z,23.67
2018-04-19T08:40:35.385Z,26.57
2018-04-19T08:43:03.458Z,21.60
2018-04-19T08:45:31.862Z,28.70
2018-04-19T08:48:00.688Z,19.63
2018-04-19T08:50:28.790Z,28.50
2018-04-19T08:52:58.820Z,21.80
2018-04-19T08:55:26.885Z,29.13
2018-04-19T08:57:54.969Z,30.07
2018-04-19T09:00:23.399Z,21.90
2018-04-19T09:02:51.465Z,29.33
2018-04-19T09:05:19.571Z,19.37
2018-04-19T09:07:47.989Z,21.77
2018-04-19T09:10:16.826Z,32.37
2018-04-19T09:12:44.927Z,26.53
2018-04-19T09:15:14.076Z,18.10
2018-04-19T09:17:42.139Z,20.90
2018-04-19T09:20:10.214Z,22.43
2018-04-19T09:22:38.751Z,22.83
2018-04-19T09:25:07.414Z,23.77
2018-04-19T09:27:35.483Z,25.13
2018-04-19T09:30:03.945Z,22.90
2018-04-19T09:32:32.023Z,20.20
2018-04-19T09:35:00.087Z,20.53
2018-04-19T09:37:28.737Z,22.07
2018-04-19T09:39:57.565Z,29.97
2018-04-19T09:42:25.623Z,25.57
2018-04-19T09:44:54.153Z,23.03
2018-04-19T09:47:22.224Z,19.80
2018-04-19T09:49:50.306Z,20.13
2018-04-19T09:52:18.976Z,18.20
2018-04-19T09:54:47.034Z,17.90
2018-04-19T09:57:15.096Z,28.93
2018-04-19T09:59:43.345Z,21.03
2018-04-19T10:02:11.428Z,18.50
2018-04-19T10:04:39.497Z,23.77
2018-04-19T10:07:07.849Z,19.50
2018-04-19T10:09:35.923Z,24.00
2018-04-19T10:12:03.997Z,20.20
2018-04-19T10:14:32.222Z,23.70
2018-04-19T10:17:00.774Z,23.87
2018-04-19T10:19:28.838Z,21.47
2018-04-19T10:21:57.044Z,22.07
2018-04-19T10:24:25.124Z,21.23
2018-04-19T10:26:53.220Z,22.27
2018-04-19T10:29:22.180Z,28.43
2018-04-19T10:31:50.242Z,23.57
2018-04-19T10:34:18.342Z,21.90
2018-04-19T10:36:46.732Z,19.93
2018-04-19T10:39:14.783Z,28.20
2018-04-19T10:41:42.852Z,22.17
2018-04-19T10:44:11.250Z,18.03
2018-04-19T10:46:40.104Z,18.83
2018-04-19T10:49:08.188Z,23.27
2018-04-19T10:51:36.672Z,27.10
2018-04-19T10:54:04.751Z,18.53
2018-04-19T10:56:32.803Z,24.20
2018-04-19T10:59:01.234Z,19.03
2018-04-19T11:01:29.296Z,22.10
2018-04-19T11:03:57.371Z,18.33
2018-04-19T11:06:26.672Z,20.40
2018-04-19T11:08:54.729Z,19.13
2018-04-19T11:11:23.563Z,19.10
2018-04-19T11:13:51.839Z,19.90
2018-04-19T11:16:19.898Z,12.67
2018-04-19T11:18:48.161Z,15.27
2018-04-19T11:21:16.602Z,13.07
2018-04-19T11:23:44.685Z,14.80
2018-04-19T11:26:13.513Z,14.30
2018-04-19T11:28:41.632Z,13.40
2018-04-19T11:31:09.706Z,14.63
2018-04-19T11:33:37.807Z,15.83
2018-04-19T11:36:06.249Z,10.70
2018-04-19T11:38:34.317Z,12.03
2018-04-19T11:41:02.401Z,14.77
2018-04-19T11:43:30.808Z,15.57
2018-04-19T11:45:58.875Z,21.90
2018-04-19T11:48:27.711Z,15.10
2018-04-19T11:50:56.213Z,16.53
2018-04-19T11:53:24.275Z,19.70
2018-04-19T11:55:52.346Z,17.00
2018-04-19T11:58:21.115Z,21.17
2018-04-19T12:00:49.173Z,14.07
2018-04-19T12:03:17.266Z,20.07
2018-04-19T12:05:45.689Z,19.47
2018-04-19T12:08:13.775Z,19.07
2018-04-19T12:10:41.841Z,21.73
2018-04-19T12:13:10.045Z,14.33
2018-04-19T12:15:38.117Z,19.40
2018-04-19T12:18:06.212Z,23.13
2018-04-19T12:20:34.687Z,13.50
2018-04-19T12:23:02.745Z,13.20
2018-04-19T12:25:30.816Z,15.03
2018-04-19T12:27:59.217Z,17.70
2018-04-19T12:30:27.286Z,15.53
2018-04-19T12:32:55.386Z,15.33
2018-04-19T12:35:23.798Z,18.57
2018-04-19T12:37:51.873Z,24.30
2018-04-19T12:40:19.949Z,21.87
2018-04-19T12:42:48.164Z,19.47
2018-04-19T12:45:16.233Z,13.53
2018-04-19T12:47:44.331Z,13.87
2018-04-19T12:50:13.289Z,12.87
2018-04-19T12:52:41.351Z,14.93
2018-04-19T12:55:09.431Z,14.73
2018-04-19T12:57:37.673Z,15.27
2018-04-19T13:00:05.741Z,15.90
2018-04-19T13:02:33.817Z,13.90
2018-04-19T13:05:02.180Z,17.63
2018-04-19T13:07:30.269Z,17.70
2018-04-19T13:09:58.341Z,12.80
2018-04-19T13:12:26.760Z,16.33
2018-04-19T13:14:55.634Z,16.73
2018-04-19T13:17:23.722Z,14.73
2018-04-19T13:19:52.092Z,12.60
2018-04-19T13:22:20.346Z,13.93
2018-04-19T13:24:48.437Z,16.13
2018-04-19T13:27:17.127Z,9.93
2018-04-19T13:29:45.191Z,9.23
2018-04-19T13:32:13.265Z,9.63
2018-04-19T13:34:41.370Z,9.20
2018-04-19T13:37:10.199Z,17.27
2018-04-19T13:39:38.271Z,11.43
2018-04-19T13:42:06.881Z,9.67
2018-04-19T13:44:34.951Z,14.60
2018-04-19T13:47:03.021Z,4.40
2018-04-19T13:49:31.615Z,8.13
2018-04-19T13:51:59.677Z,4.53
2018-04-19T13:54:27.758Z,4.50
2018-04-19T13:56:56.009Z,7.27
2018-04-19T13:59:24.097Z,5.70
2018-04-19T14:01:52.223Z,5.10
2018-04-19T14:04:21.257Z,3.67
2018-04-19T14:06:49.350Z,3.57
2018-04-19T14:09:17.408Z,5.60
2018-04-19T14:11:45.640Z,7.60
2018-04-19T14:14:14.646Z,5.93
2018-04-19T14:16:42.731Z,3.30
2018-04-19T14:19:11.257Z,6.63
2018-04-19T14:21:39.342Z,2.70
2018-04-19T14:24:07.625Z,6.03
2018-04-19T14:26:35.815Z,6.10
2018-04-19T14:29:03.941Z,5.90
2018-04-19T14:31:31.989Z,3.67
2018-04-19T14:34:00.190Z,4.93
2018-04-19T14:36:28.283Z,4.03
2018-04-19T14:38:56.349Z,6.57
2018-04-19T14:41:24.793Z,4.57
2018-04-19T14:43:52.875Z,6.60
2018-04-19T14:46:20.933Z,3.80
2018-04-19T14:48:49.645Z,7.20
2018-04-19T14:51:18.485Z,3.20
2018-04-19T14:53:46.592Z,5.13
2018-04-19T14:56:14.817Z,4.07
2018-04-19T14:58:42.877Z,4.23
2018-04-19T15:01:10.949Z,3.37
2018-04-19T15:03:39.895Z,3.57
2018-04-19T15:06:07.959Z,3.00
2018-04-19T15:08:36.030Z,5.50
2018-04-19T15:11:04.278Z,4.17
2018-04-19T15:13:32.370Z,2.53
2018-04-19T15:16:00.432Z,4.70
2018-04-19T15:18:29.859Z,10.63
2018-04-19T15:20:59.088Z,3.00
2018-04-19T15:23:28.903Z,3.70
2018-04-19T15:25:57.735Z,8.10
2018-04-19T15:28:25.814Z,3.23
2018-04-19T15:30:53.868Z,3.10
2018-04-19T15:33:22.296Z,4.73
2018-04-19T15:35:51.142Z,8.77
2018-04-19T15:38:20.196Z,7.93
2018-04-19T15:40:48.257Z,5.63
2018-04-19T15:43:17.100Z,7.33
2018-04-19T15:45:45.696Z,4.67
2018-04-19T15:48:13.775Z,5.57
2018-04-19T15:50:41.839Z,5.70
2018-04-19T15:53:10.287Z,8.13
2018-04-19T15:55:38.360Z,8.60
2018-04-19T15:58:06.440Z,10.03
2018-04-19T16:00:34.670Z,13.10
2018-04-19T16:03:02.781Z,9.70
2018-04-19T16:05:31.628Z,8.43
2018-04-19T16:08:00.199Z,11.97
2018-04-19T16:10:29.037Z,9.27
2018-04-19T16:12:57.112Z,10.00
2018-04-19T16:15:25.595Z,15.20
2018-04-19T16:17:53.701Z,12.13
2018-04-19T16:20:21.778Z,14.47
2018-04-19T16:22:49.962Z,8.30
2018-04-19T16:25:18.028Z,6.60
2018-04-19T16:27:46.320Z,6.33
2018-04-19T16:30:15.694Z,7.00
2018-04-19T16:32:43.766Z,6.63
2018-04-19T16:35:11.818Z,7.13
2018-04-19T16:37:40.076Z,4.23
2018-04-19T16:40:08.152Z,7.33
2018-04-19T16:42:36.230Z,7.33
2018-04-19T16:45:04.500Z,12.50
2018-04-19T16:47:32.592Z,8.40
2018-04-19T16:50:00.624Z,11.57
2018-04-19T16:52:29.258Z,8.27
2018-04-19T16:54:57.326Z,9.27
2018-04-19T16:57:25.390Z,4.10
2018-04-19T16:59:54.098Z,9.73
2018-04-19T17:02:22.179Z,10.07
2018-04-19T17:04:51.017Z,5.73
2018-04-19T17:07:19.525Z,6.43
2018-04-19T17:09:47.600Z,5.33
2018-04-19T17:12:15.680Z,10.53
2018-04-19T17:14:44.262Z,4.00
2018-04-19T17:17:12.206Z,4.37
2018-04-19T17:19:40.262Z,3.00
2018-04-19T17:22:08.892Z,4.53
2018-04-19T17:24:36.966Z,3.17
2018-04-19T17:27:05.046Z,5.20
2018-04-19T17:29:33.370Z,11.13
2018-04-19T17:32:01.432Z,2.60
2018-04-19T17:34:29.502Z,6.63
2018-04-19T17:36:57.698Z,3.07
2018-04-19T17:39:25.797Z,5.53
2018-04-19T17:41:55.247Z,7.90
2018-04-19T17:44:23.665Z,7.80
2018-04-19T17:46:51.732Z,9.13
2018-04-19T17:49:19.791Z,4.27
2018-04-19T17:51:48.389Z,3.70
2018-04-19T17:54:16.449Z,2.70
2018-04-19T17:56:44.506Z,6.50
2018-04-19T17:59:12.958Z,3.47
2018-04-19T18:01:41.004Z,7.90
2018-04-19T18:04:09.840Z,16.00
2018-04-19T18:06:38.377Z,6.23
2018-04-19T18:09:07.642Z,10.80
2018-04-19T18:11:35.706Z,5.47
2018-04-19T18:14:03.773Z,4.73
2018-04-19T18:16:32.159Z,7.40
2018-04-19T18:19:00.264Z,5.70
2018-04-19T18:21:29.089Z,6.03
2018-04-19T18:23:57.598Z,7.73
2018-04-19T18:26:25.752Z,5.90
2018-04-19T18:28:53.806Z,14.47
2018-04-19T18:31:22.609Z,9.57
2018-04-19T18:33:50.696Z,13.73
2018-04-19T18:36:19.517Z,5.97
2018-04-19T18:38:48.869Z,5.07
2018-04-19T18:41:16.945Z,5.70
2018-04-19T18:43:45.002Z,5.40
2018-04-19T18:46:13.310Z,5.40
2018-04-19T18:48:41.408Z,5.50
2018-04-19T18:51:09.450Z,5.30
2018-04-19T18:53:37.829Z,4.77
2018-04-19T18:56:05.903Z,6.67
2018-04-19T18:58:33.961Z,7.30
2018-04-19T19:01:02.146Z,9.17
2018-04-19T19:03:30.219Z,13.63
2018-04-19T19:05:58.277Z,17.50
2018-04-19T19:08:26.603Z,10.10
2018-04-19T19:10:54.674Z,8.60
2018-04-19T19:13:23.501Z,11.13
2018-04-19T19:16:09.369Z,7.03
2018-04-19T19:18:49.114Z,11.90
2018-04-19T19:21:17.661Z,5.60
2018-04-19T19:23:45.729Z,9.50
2018-04-19T19:26:13.785Z,7.00
2018-04-19T19:28:42.257Z,7.00
2018-04-19T19:31:11.027Z,11.83
2018-04-19T19:33:39.588Z,14.47
2018-04-19T19:36:08.865Z,6.53
2018-04-19T19:38:37.703Z,7.47
2018-04-19T19:41:05.760Z,9.30
2018-04-19T19:43:34.318Z,9.60
2018-04-19T19:46:03.142Z,7.60
2018-04-19T19:48:31.203Z,6.47
2018-04-19T19:50:59.583Z,6.83
2018-04-19T19:53:27.643Z,6.30
2018-04-19T19:55:55.692Z,6.03
2018-04-19T19:58:23.956Z,10.33
2018-04-19T20:00:52.799Z,8.97
2018-04-19T20:03:20.850Z,8.37
2018-04-19T20:05:49.112Z,9.60
2018-04-19T20:08:17.929Z,7.77
2018-04-19T20:10:45.984Z,11.60
2018-04-19T20:13:14.209Z,9.43
2018-04-19T20:15:42.271Z,7.73
2018-04-19T20:18:10.332Z,18.20
2018-04-19T20:20:38.552Z,8.40
2018-04-19T20:23:06.611Z,7.50
2018-04-19T20:25:34.664Z,6.17
2018-04-19T20:28:02.948Z,11.20
2018-04-19T20:30:31.016Z,8.00
2018-04-19T20:32:59.077Z,8.13
2018-04-19T20:35:27.821Z,5.20
2018-04-19T20:37:56.626Z,7.67
2018-04-19T20:40:24.687Z,10.20
2018-04-19T20:42:53.210Z,11.90
2018-04-19T20:45:21.275Z,10.40
2018-04-19T20:47:49.330Z,12.90
2018-04-19T20:50:17.728Z,7.90
2018-04-19T20:52:45.789Z,8.57
2018-04-19T20:55:13.845Z,7.83
2018-04-19T20:57:42.240Z,9.00
2018-04-19T21:00:10.343Z,8.20
2018-04-19T21:02:38.388Z,7.40
2018-04-19T21:05:06.581Z,8.67
2018-04-19T21:07:34.721Z,9.73
2018-04-19T21:10:02.747Z,8.10
2018-04-19T21:12:31.913Z,12.20
2018-04-19T21:14:59.979Z,7.70
2018-04-19T21:17:28.048Z,7.60
2018-04-19T21:19:56.457Z,9.83
2018-04-19T21:22:25.288Z,11.73
2018-04-19T21:24:53.391Z,8.53
2018-04-19T21:27:21.856Z,9.40
2018-04-19T21:29:49.917Z,13.77
2018-04-19T21:32:18.005Z,9.37
2018-04-19T21:34:46.383Z,12.43
2018-04-19T21:37:14.942Z,8.13
2018-04-19T21:39:42.999Z,12.87
2018-04-19T21:42:11.533Z,9.50
2018-04-19T21:44:39.594Z,11.60
2018-04-19T21:47:07.659Z,10.20
2018-04-19T21:49:36.052Z,11.13
2018-04-19T21:52:04.105Z,9.60
2018-04-19T21:54:32.165Z,16.87
2018-04-19T21:57:00.597Z,12.10
2018-04-19T21:59:29.416Z,9.63
2018-04-19T22:01:57.484Z,12.97
2018-04-19T22:04:26.012Z,8.63
2018-04-19T22:06:54.078Z,14.63
2018-04-19T22:09:22.137Z,14.90
2018-04-19T22:11:50.539Z,8.60
2018-04-19T22:14:18.630Z,10.90
2018-04-19T22:16:47.466Z,16.33
2018-04-19T22:19:15.677Z,12.07
2018-04-19T22:21:43.763Z,7.87
2018-04-19T22:24:11.821Z,15.87
2018-04-19T22:26:40.192Z,9.20
2018-04-19T22:29:08.251Z,13.63
2018-04-19T22:31:36.312Z,15.30
2018-04-19T22:34:05.017Z,7.80
2018-04-19T22:36:33.074Z,16.40
2018-04-19T22:39:01.513Z,7.47
2018-04-19T22:41:29.855Z,13.43
2018-04-19T22:43:57.916Z,11.67
2018-04-19T22:46:25.985Z,11.17
2018-04-19T22:48:54.386Z,8.37
2018-04-19T22:51:23.212Z,11.77
2018-04-19T22:53:51.278Z,7.40
2018-04-19T22:56:19.799Z,10.30
2018-04-19T22:58:47.867Z,7.70
2018-04-19T23:01:15.941Z,10.10
2018-04-19T23:03:44.350Z,14.17
2018-04-19T23:06:13.180Z,13.30
2018-04-19T23:08:41.244Z,6.63
2018-04-19T23:11:09.790Z,7.17
2018-04-19T23:13:38.618Z,9.50
2018-04-19T23:16:06.677Z,10.00
2018-04-19T23:18:35.220Z,10.50
2018-04-19T23:21:03.279Z,8.47
2018-04-19T23:23:31.340Z,8.83
2018-04-19T23:25:59.737Z,11.37
2018-04-19T23:28:27.802Z,7.43
2018-04-19T23:30:55.876Z,11.43
2018-04-19T23:33:24.248Z,10.50
2018-04-19T23:35:52.320Z,9.50
2018-04-19T23:38:20.381Z,11.67
2018-04-19T23:40:49.553Z,11.30
2018-04-19T23:43:17.617Z,8.10
2018-04-19T23:45:45.672Z,11.87
2018-04-19T23:48:14.224Z,11.93
2018-04-19T23:50:42.277Z,9.57
2018-04-19T23:53:10.395Z,12.93
2018-04-19T23:55:39.652Z,9.07
2018-04-19T23:58:07.702Z,9.00
